Iona, South Dakota
Current Conditions -  °F | °C
As of 5:55 AM on Friday 19 Dec 2014 (Local Time) from K9V9 Reporting Station
Haze Haze  
Wind Chill: 14°   Ceiling: 200
Heat Index: 14°   Visibility: 0.75mi
Dew Point: 12°   Wind: 3mph
Humidity: 93%   Direction: 140°SE
Pressure: 30.05"   Gusts: NA
Location:  43.54°N, 99.42°W
Report Text: K9V9 191155Z AUTO 14003KT 3/4SM BR BKN002 M10/M11 A3005 RMK AO2 7//// T11001110 11040 21101
Loading
Personal Weather Stations






























Interactive Weather Map New forecast layout! Learn more

10-Day Weather Forecast

Advertisements
Track Severe Weather on mobile